Amarillo, TX

10:20 PM CDT on October 22, 2014 (GMT -0500)
Travis middle school | Change Station
CLOSE
Current Station
Personal Weather Station
Location: Amarillo, TX
Elevation: 3658 ft
Nearby Weather Stations

Elev 3658 ft 35.24 °N, 101.81 °W | Updated 14 minutes ago

Overcast
Overcast
60.6 °F
Feels Like 60.6 °F
N
8.9
Wind Variable Wind from WSW

Today
High -- | Low -- °F
--% Chance of Precip.
Yesterday
High -- | Low -- °F
Precip. -- in
7:59 AM 7:02 PM
Waning Crescent, 1% visible
Pressure 30.03 in
Visibility 8.0 miles
Clouds Overcast 700 ft
Dew Point 58 °F
Humidity 92%
Rainfall 0.41 in
Snow Depth Not available.
UV 0 out of 12
Pollen 5.10 out of 12
Air Quality Not available.
Flu Activity Sporadic
METAR KAMA 230253Z 17015KT 8SM OVC007 16/15 A3012 RMK AO2 CIG 005V010 SLP169 T01610150 51015

More Conditions Fewer Conditions

Pressure 30.03 in
Visibility 8.0 miles
Clouds Overcast 700 ft
Dew Point 58 °F
Humidity 92%
Rainfall 0.41 in
Snow Depth Not available.
UV 0 out of 12
Pollen 5.10 out of 12
Air Quality Not available.
Flu Activity Sporadic
METAR KAMA 230253Z 17015KT 8SM OVC007 16/15 A3012 RMK AO2 CIG 005V010 SLP169 T01610150 51015

More Conditions Fewer Conditions

10-Day Weather Forecast

Almanac

Astronomy

Oct. 22, 2014 Rise Set
Actual Time 7:59 AM CDT 7:02 PM CDT
Civil Twilight 7:33 AM CDT 7:28 PM CDT
Nautical Twilight 7:03 AM CDT 7:58 PM CDT
Astronomical Twilight 6:34 AM CDT 8:27 PM CDT
Moon 6:45 AM CDT (10/22) 6:28 PM CDT (10/22)
Length of Visible Light 11h 55m
Length of Day
11h 03m
Tomorrow will be 2m 3s shorter.
Waning Crescent, 1% of the Moon is Illuminated
Today
Waning Crescent
Oct 23
New
Oct 30
First Quarter
Nov 6
Full
Nov 14
Last Quarter

Today's Extremes

State Highs State Lows

Community

WunderPhotos

Upload Photos

1,764,128 photos uploaded!

Nearby

Snow Depth

Station Depth Elevation
No new snow has been reported.

Earthquake Activity

City Distance Mag. Time & Date
No recent earthquake activity has been reported nearby.
Minimum magnitude displayed is 2.5.

Coastal Water Temperatures

Place Temperature
No Stations Reporting

Nearby Weather Stations